Richwood, WV (26261)

12:45 AM EDT on August 25, 2016 (GMT -0400)
The Family Center | | Change Station

Elev 2192 ft 38.22 °N, 80.53 °W | Updated 5 minutes ago

Clear
Clear
66.6 °F
Feels Like 66.6 °F
N
2.0
Wind Variable Wind from NE
Gusts 2.0 mph

Today
High -- | Low -- °F
--% Chance of Precip.
Yesterday
High -- | Low -- °F
Precip. -- in
Pressure 30.25 in
Visibility 7.0 miles
Clouds Clear
Dew Point 65 °F
Humidity 93%
Rainfall 0.00 in
Snow Depth Not available.
6:46 AM 8:01 PM
Waning Gibbous, 50% visible
METAR KLWB 250415Z AUTO 00000KT 7SM CLR 19/18 A3025 RMK AO2 T01850180
Pressure 30.25 in
Visibility 7.0 miles
Clouds Clear
Dew Point 65 °F
Humidity 93%
Rainfall 0.00 in
Snow Depth Not available.
6:46 AM 8:01 PM
Waning Gibbous, 50% visible
METAR KLWB 250415Z AUTO 00000KT 7SM CLR 19/18 A3025 RMK AO2 T01850180

10-Day Weather Forecast

Almanac

Astronomy

Aug. 25, 2016 Rise Set
Actual Time
Civil Twilight
Nautical Twilight
Astronomical Twilight
Moon
Length of Visible Light
Length of Day
Tomorrow will be .
, % of the Moon is Illuminated

Today's Extremes

State Highs State Lows

Community

WunderPhotos

Upload Photos

1,934,798 photos uploaded!

WunderBlog® & News

Nearby

Air Quality

  Air Quality AQ Index Pollutant
Not available.

Snow Depth

Station Depth Elevation

Earthquake Activity

City Distance Mag. Time & Date
Minimum magnitude displayed is 2.5.

Coastal Water Temperatures

Place Temperature

Stations

Nearby Weather Stations

Station Location Temp. Windchill Dew Point Humidity Wind Precip. Elev Updated Type
                   

Watches & Warnings

There are currently no watches in effect.